createdAt,value
2022-09-23T00:22:41.548Z,77.11
2022-09-23T00:51:13.880Z,81.49
2022-09-23T01:19:44.056Z,85.44
2022-09-23T01:48:28.245Z,85.63
2022-09-23T02:17:07.652Z,84.55
2022-09-23T02:45:47.968Z,85.33
2022-09-23T03:14:16.245Z,80.26
2022-09-23T03:42:54.398Z,82.26
2022-09-23T04:11:27.762Z,86.22
2022-09-23T04:40:11.418Z,81.21
2022-09-23T05:08:51.680Z,79.07
2022-09-23T05:37:05.303Z,78.63
2022-09-23T06:05:27.681Z,74.95
2022-09-23T06:34:11.334Z,68.96
2022-09-23T07:02:25.650Z,67.73
2022-09-23T07:31:00.207Z,64.59
2022-09-23T07:59:20.417Z,57.49
2022-09-23T08:28:41.062Z,47.42
2022-09-23T08:57:31.520Z,49.62
2022-09-23T09:26:27.877Z,44.99
2022-09-23T09:55:34.189Z,42.54
2022-09-23T10:24:32.421Z,43.26
2022-09-23T10:53:11.830Z,41.82
2022-09-23T11:22:01.995Z,44.12
2022-09-23T11:51:08.551Z,43.15
2022-09-23T12:20:17.142Z,44.24
2022-09-23T12:49:26.358Z,41.3
2022-09-23T13:18:34.007Z,44.35
2022-09-23T13:47:24.128Z,45.42
2022-09-23T14:16:01.167Z,47.46
2022-09-23T14:44:18.337Z,48.62
2022-09-23T15:12:32.325Z,49.36
2022-09-23T15:40:48.782Z,51.26
2022-09-23T16:09:04.692Z,54.66
2022-09-23T16:37:23.414Z,57.03
2022-09-23T17:05:34.149Z,62.55
2022-09-23T17:33:53.394Z,63.74
2022-09-23T18:02:16.440Z,67.61
2022-09-23T18:30:27.623Z,70.83
2022-09-23T18:58:47.852Z,69.92
2022-09-23T19:27:15.688Z,71.43
2022-09-23T19:55:28.905Z,75.12
2022-09-23T20:23:45.989Z,77.96
2022-09-23T20:52:41.591Z,82.37
2022-09-23T21:21:41.485Z,82.36
2022-09-23T21:50:34.273Z,81.43
2022-09-23T22:19:27.533Z,83.9
2022-09-23T22:48:20.111Z,81.08
2022-09-23T23:17:11.788Z,83.81
2022-09-23T23:46:03.299Z,84.14
